createdAt,value
2018-07-05T00:00:11.756Z,8.30
2018-07-05T00:02:52.135Z,8.30
2018-07-05T00:05:32.393Z,9.00
2018-07-05T00:08:12.557Z,9.53
2018-07-05T00:10:55.924Z,9.57
2018-07-05T00:13:36.381Z,8.60
2018-07-05T00:16:16.635Z,9.30
2018-07-05T00:18:56.555Z,8.27
2018-07-05T00:21:36.194Z,8.13
2018-07-05T00:24:17.119Z,8.47
2018-07-05T00:26:57.088Z,8.60
2018-07-05T00:29:37.145Z,9.00
2018-07-05T00:32:17.196Z,8.97
2018-07-05T00:34:56.936Z,9.53
2018-07-05T00:37:36.836Z,8.97
2018-07-05T00:40:16.774Z,8.80
2018-07-05T00:42:56.469Z,9.27
2018-07-05T00:45:36.355Z,10.03
2018-07-05T00:48:16.135Z,9.70
2018-07-05T00:50:57.461Z,9.03
2018-07-05T00:53:40.575Z,9.30
2018-07-05T00:56:21.264Z,9.13
2018-07-05T00:59:09.104Z,8.70
2018-07-05T01:01:49.959Z,8.97
2018-07-05T01:04:29.805Z,8.47
2018-07-05T01:07:10.948Z,9.47
2018-07-05T01:09:46.255Z,9.77
2018-07-05T01:12:26.330Z,9.87
2018-07-05T01:15:06.350Z,9.07
2018-07-05T01:17:46.149Z,8.57
2018-07-05T01:20:20.332Z,9.10
2018-07-05T01:22:59.953Z,9.43
2018-07-05T01:25:39.784Z,8.90
2018-07-05T01:28:20.099Z,9.60
2018-07-05T01:31:00.956Z,10.33
2018-07-05T01:33:40.929Z,9.53
2018-07-05T01:36:23.735Z,10.73
2018-07-05T01:39:04.096Z,10.03
2018-07-05T01:41:44.371Z,9.63
2018-07-05T01:44:24.286Z,10.07
2018-07-05T01:47:04.331Z,9.57
2018-07-05T01:49:44.221Z,10.07
2018-07-05T01:52:24.072Z,9.43
2018-07-05T01:55:04.063Z,10.53
2018-07-05T01:57:44.067Z,11.17
2018-07-05T02:00:24.152Z,9.33
2018-07-05T02:03:04.420Z,10.20
2018-07-05T02:05:44.445Z,11.10
2018-07-05T02:08:24.297Z,12.43
2018-07-05T02:11:04.307Z,10.97
2018-07-05T02:13:44.064Z,12.37
2018-07-05T02:16:24.296Z,13.70
2018-07-05T02:19:04.218Z,11.90
2018-07-05T02:21:44.043Z,12.37
2018-07-05T02:24:25.174Z,13.73
2018-07-05T02:27:05.162Z,13.63
2018-07-05T02:29:45.055Z,14.97
2018-07-05T02:32:24.953Z,14.33
2018-07-05T02:35:04.799Z,13.33
2018-07-05T02:37:49.978Z,11.50
2018-07-05T02:40:31.150Z,13.40
2018-07-05T02:43:13.089Z,12.40
2018-07-05T02:45:53.645Z,13.23
2018-07-05T02:48:33.841Z,13.83
2018-07-05T02:51:13.898Z,12.80
2018-07-05T02:53:54.190Z,12.50
2018-07-05T02:56:27.988Z,13.03
2018-07-05T02:59:08.461Z,13.40
2018-07-05T03:01:48.593Z,13.60
2018-07-05T03:04:28.684Z,12.60
2018-07-05T03:07:08.638Z,13.20
2018-07-05T03:09:48.625Z,12.57
2018-07-05T03:12:28.207Z,12.53
2018-07-05T03:15:09.325Z,12.50
2018-07-05T03:17:49.032Z,12.37
2018-07-05T03:20:28.844Z,14.13
2018-07-05T03:23:08.603Z,13.40
2018-07-05T03:25:48.366Z,12.47
2018-07-05T03:28:28.948Z,12.50
2018-07-05T03:31:11.447Z,12.80
2018-07-05T03:33:56.418Z,12.30
2018-07-05T03:36:38.111Z,12.30
2018-07-05T03:39:14.666Z,13.27
2018-07-05T03:41:55.395Z,12.13
2018-07-05T03:44:45.170Z,12.70
2018-07-05T03:47:26.661Z,12.57
2018-07-05T03:50:07.344Z,13.87
2018-07-05T03:52:47.272Z,12.37
2018-07-05T03:55:27.361Z,13.00
2018-07-05T03:58:07.226Z,12.97
2018-07-05T04:00:47.035Z,13.60
2018-07-05T04:03:27.090Z,14.00
2018-07-05T04:06:07.553Z,13.63
2018-07-05T04:08:47.935Z,15.53
2018-07-05T04:11:27.999Z,14.53
2018-07-05T04:14:08.281Z,15.27
2018-07-05T04:16:48.695Z,15.23
2018-07-05T04:19:29.097Z,15.17
2018-07-05T04:22:09.023Z,17.83
2018-07-05T04:24:48.731Z,15.10
2018-07-05T04:27:29.490Z,17.80
2018-07-05T04:30:09.896Z,16.57
2018-07-05T04:32:49.860Z,19.30
2018-07-05T04:35:30.098Z,20.40
2018-07-05T04:38:10.041Z,19.07
2018-07-05T04:40:49.863Z,20.27
2018-07-05T04:43:29.956Z,17.60
2018-07-05T04:46:10.010Z,18.07
2018-07-05T04:48:49.931Z,20.50
2018-07-05T04:51:29.949Z,21.03
2018-07-05T04:54:09.637Z,20.37
2018-07-05T04:56:49.699Z,20.63
2018-07-05T04:59:30.195Z,21.07
2018-07-05T05:02:10.756Z,20.97
2018-07-05T05:04:51.398Z,20.97
2018-07-05T05:07:31.297Z,21.83
2018-07-05T05:10:11.167Z,22.30
2018-07-05T05:12:50.911Z,23.43
2018-07-05T05:15:30.664Z,22.13
2018-07-05T05:18:10.812Z,23.97
2018-07-05T05:20:51.550Z,25.33
2018-07-05T05:23:31.268Z,24.07
2018-07-05T05:26:11.930Z,24.70
2018-07-05T05:28:51.802Z,23.77
2018-07-05T05:31:31.682Z,24.60
2018-07-05T05:34:11.701Z,22.20
2018-07-05T05:36:46.642Z,22.40
2018-07-05T05:39:26.370Z,23.33
2018-07-05T05:42:06.274Z,22.23
2018-07-05T05:44:46.157Z,23.93
2018-07-05T05:47:25.962Z,24.60
2018-07-05T05:50:06.034Z,23.60
2018-07-05T05:52:45.759Z,23.03
2018-07-05T05:55:25.711Z,24.10
2018-07-05T05:58:05.873Z,23.37
2018-07-05T06:00:45.576Z,23.50
2018-07-05T06:03:25.403Z,21.83
2018-07-05T06:06:05.265Z,23.70
2018-07-05T06:08:45.512Z,23.03
2018-07-05T06:11:25.201Z,22.80
2018-07-05T06:14:05.457Z,22.33
2018-07-05T06:16:45.591Z,23.20
2018-07-05T06:19:25.512Z,23.47
2018-07-05T06:22:05.380Z,21.70
2018-07-05T06:24:45.188Z,20.97
2018-07-05T06:27:24.992Z,21.13
2018-07-05T06:30:04.862Z,22.23
2018-07-05T06:32:44.820Z,21.73
2018-07-05T06:35:24.942Z,20.13
2018-07-05T06:38:05.946Z,21.40
2018-07-05T06:40:45.686Z,20.27
2018-07-05T06:43:27.087Z,21.00
2018-07-05T06:46:07.016Z,19.48
2018-07-05T06:48:50.135Z,19.20
2018-07-05T06:51:29.990Z,18.32
2018-07-05T06:54:09.727Z,18.10
2018-07-05T06:56:50.230Z,17.05
2018-07-05T06:59:29.972Z,18.30
2018-07-05T07:02:10.461Z,15.23
2018-07-05T07:04:50.312Z,17.25
2018-07-05T07:07:30.066Z,14.93
2018-07-05T07:10:09.961Z,15.20
2018-07-05T07:12:50.887Z,15.98
2018-07-05T07:15:31.028Z,16.25
2018-07-05T07:18:10.950Z,16.27
2018-07-05T07:20:51.355Z,16.05
2018-07-05T07:23:31.164Z,16.45
2018-07-05T07:26:11.043Z,14.85
2018-07-05T07:28:51.904Z,15.80
2018-07-05T07:31:31.911Z,12.93
2018-07-05T07:34:11.611Z,12.63
2018-07-05T07:36:46.247Z,13.13
2018-07-05T07:39:26.052Z,13.35
2018-07-05T07:41:53.928Z,13.13
2018-07-05T07:44:22.676Z,11.60
2018-07-05T07:46:50.348Z,12.28
2018-07-05T07:49:17.795Z,12.78
2018-07-05T07:51:45.555Z,11.33
2018-07-05T07:54:13.014Z,11.48
2018-07-05T07:56:41.968Z,11.85
2018-07-05T07:59:09.753Z,14.05
2018-07-05T08:01:37.344Z,11.68
2018-07-05T08:04:05.109Z,10.58
2018-07-05T08:06:33.102Z,11.28
2018-07-05T08:09:01.843Z,12.35
2018-07-05T08:11:30.271Z,12.43
2018-07-05T08:13:57.722Z,11.50
2018-07-05T08:16:25.291Z,12.25
2018-07-05T08:18:52.983Z,10.88
2018-07-05T08:21:20.716Z,12.10
2018-07-05T08:23:48.474Z,12.28
2018-07-05T08:26:16.352Z,10.25
2018-07-05T08:28:44.100Z,12.20
2018-07-05T08:31:11.950Z,10.40
2018-07-05T08:33:39.516Z,9.13
2018-07-05T08:36:07.001Z,11.48
2018-07-05T08:38:34.652Z,12.30
2018-07-05T08:41:02.167Z,11.83
2018-07-05T08:43:33.437Z,10.90
2018-07-05T08:46:00.996Z,10.82
2018-07-05T08:48:30.384Z,8.93
2018-07-05T08:50:58.408Z,10.80
2018-07-05T08:53:26.151Z,11.45
2018-07-05T08:55:53.624Z,10.30
2018-07-05T08:58:21.390Z,10.15
2018-07-05T09:00:49.257Z,9.98
2018-07-05T09:03:17.201Z,10.78
2018-07-05T09:05:44.952Z,10.82
2018-07-05T09:08:12.492Z,9.50
2018-07-05T09:10:40.298Z,9.08
2018-07-05T09:13:09.207Z,9.40
2018-07-05T09:15:36.714Z,9.98
2018-07-05T09:18:04.448Z,9.15
2018-07-05T09:20:32.038Z,8.15
2018-07-05T09:22:59.789Z,7.03
2018-07-05T09:25:29.475Z,6.85
2018-07-05T09:27:56.916Z,7.25
2018-07-05T09:30:24.464Z,7.40
2018-07-05T09:32:52.920Z,7.30
2018-07-05T09:35:20.378Z,7.08
2018-07-05T09:37:49.481Z,7.28
2018-07-05T09:40:17.786Z,9.10
2018-07-05T09:42:45.543Z,8.58
2018-07-05T09:45:13.289Z,9.10
2018-07-05T09:47:41.574Z,7.65
2018-07-05T09:50:09.140Z,8.80
2018-07-05T09:52:37.016Z,10.08
2018-07-05T09:55:04.574Z,9.93
2018-07-05T09:57:32.435Z,8.20
2018-07-05T10:00:00.207Z,9.80
2018-07-05T10:02:27.715Z,7.97
2018-07-05T10:04:55.153Z,8.78
2018-07-05T10:07:23.032Z,7.80
2018-07-05T10:09:54.578Z,9.40
2018-07-05T10:12:29.423Z,8.13
2018-07-05T10:14:57.237Z,9.58
2018-07-05T10:17:24.724Z,8.28
2018-07-05T10:19:52.849Z,9.83
2018-07-05T10:22:20.860Z,9.75
2018-07-05T10:24:49.939Z,8.43
2018-07-05T10:27:17.474Z,9.35
2018-07-05T10:29:58.024Z,8.95
2018-07-05T10:32:38.343Z,10.08
2018-07-05T10:35:06.454Z,8.05
2018-07-05T10:37:34.114Z,7.65
2018-07-05T10:40:13.959Z,9.23
2018-07-05T10:42:54.443Z,6.97
2018-07-05T10:45:35.241Z,7.92
2018-07-05T10:48:15.338Z,8.13
2018-07-05T10:50:55.300Z,8.48
2018-07-05T10:53:36.654Z,7.47
2018-07-05T10:56:16.641Z,6.20
2018-07-05T10:58:50.486Z,7.10
2018-07-05T11:01:30.158Z,6.60
2018-07-05T11:04:10.300Z,7.55
2018-07-05T11:06:50.724Z,7.25
2018-07-05T11:09:31.107Z,6.95
2018-07-05T11:12:10.800Z,7.25
2018-07-05T11:14:51.784Z,7.45
2018-07-05T11:17:31.848Z,6.45
2018-07-05T11:20:12.253Z,6.75
2018-07-05T11:22:52.877Z,5.22
2018-07-05T11:25:32.837Z,5.20
2018-07-05T11:28:14.764Z,4.83
2018-07-05T11:30:55.488Z,4.25
2018-07-05T11:33:35.273Z,4.17
2018-07-05T11:36:15.836Z,4.30
2018-07-05T11:38:56.191Z,4.70
2018-07-05T11:41:36.342Z,5.28
2018-07-05T11:44:16.228Z,5.85
2018-07-05T11:46:56.479Z,6.03
2018-07-05T11:49:36.329Z,5.90
2018-07-05T11:52:16.215Z,5.53
2018-07-05T11:54:57.021Z,5.83
2018-07-05T11:57:37.268Z,6.53
2018-07-05T12:00:18.384Z,6.92
2018-07-05T12:02:58.110Z,6.22
2018-07-05T12:05:38.416Z,6.10
2018-07-05T12:08:18.661Z,5.67
2018-07-05T12:10:58.537Z,6.03
2018-07-05T12:13:38.320Z,6.87
2018-07-05T12:16:18.535Z,6.08
2018-07-05T12:18:58.196Z,5.85
2018-07-05T12:21:38.119Z,5.60
2018-07-05T12:24:17.981Z,5.62
2018-07-05T12:26:57.754Z,6.00
2018-07-05T12:29:37.608Z,6.50
2018-07-05T12:32:17.388Z,5.97
2018-07-05T12:34:57.380Z,6.03
2018-07-05T12:37:39.077Z,5.90
2018-07-05T12:40:18.906Z,5.42
2018-07-05T12:42:59.096Z,5.60
2018-07-05T12:45:38.799Z,5.53
2018-07-05T12:48:13.074Z,6.03
2018-07-05T12:51:02.225Z,6.20
2018-07-05T12:53:42.224Z,5.87
2018-07-05T12:56:22.766Z,6.50
2018-07-05T12:59:02.657Z,5.53
2018-07-05T13:01:42.633Z,5.70
2018-07-05T13:04:22.684Z,5.60
2018-07-05T13:07:02.636Z,6.37
2018-07-05T13:09:42.444Z,6.00
2018-07-05T13:12:22.315Z,6.37
2018-07-05T13:15:02.101Z,5.85
2018-07-05T13:17:42.101Z,6.20
2018-07-05T13:20:21.868Z,6.42
2018-07-05T13:23:01.629Z,6.30
2018-07-05T13:25:41.827Z,6.12
2018-07-05T13:28:21.545Z,5.65
2018-07-05T13:31:01.501Z,5.70
2018-07-05T13:33:41.501Z,5.58
2018-07-05T13:36:21.253Z,6.53
2018-07-05T13:39:01.060Z,5.95
2018-07-05T13:41:41.973Z,5.65
2018-07-05T13:44:21.695Z,5.90
2018-07-05T13:47:01.625Z,5.50
2018-07-05T13:49:41.662Z,5.55
2018-07-05T13:52:21.379Z,5.20
2018-07-05T13:55:01.274Z,5.47
2018-07-05T13:57:41.791Z,5.40
2018-07-05T14:00:21.580Z,5.10
2018-07-05T14:03:01.632Z,5.00
2018-07-05T14:05:41.534Z,5.28
2018-07-05T14:08:22.036Z,5.15
2018-07-05T14:11:02.015Z,5.03
2018-07-05T14:13:41.879Z,4.97
2018-07-05T14:16:22.101Z,5.10
2018-07-05T14:19:01.914Z,4.87
2018-07-05T14:21:42.248Z,5.22
2018-07-05T14:24:16.198Z,5.00
2018-07-05T14:26:56.002Z,4.90
2018-07-05T14:29:35.872Z,4.62
2018-07-05T14:32:15.741Z,4.60
2018-07-05T14:34:55.427Z,4.70
2018-07-05T14:37:36.477Z,4.70
2018-07-05T14:40:17.719Z,4.72
2018-07-05T14:43:01.705Z,4.62
2018-07-05T14:45:42.096Z,4.10
2018-07-05T14:48:23.514Z,4.75
2018-07-05T14:51:04.893Z,4.50
2018-07-05T14:53:44.729Z,4.53
2018-07-05T14:56:24.733Z,4.10
2018-07-05T14:59:04.575Z,4.40
2018-07-05T15:01:44.344Z,4.65
2018-07-05T15:04:24.335Z,4.22
2018-07-05T15:07:04.098Z,4.33
2018-07-05T15:09:44.139Z,4.08
2018-07-05T15:12:25.364Z,4.00
2018-07-05T15:15:05.303Z,3.72
2018-07-05T15:17:45.825Z,4.20
2018-07-05T15:20:25.499Z,3.85
2018-07-05T15:23:05.342Z,3.92
2018-07-05T15:25:45.169Z,4.00
2018-07-05T15:28:25.552Z,3.90
2018-07-05T15:31:17.010Z,3.70
2018-07-05T15:33:58.744Z,3.83
2018-07-05T15:36:38.400Z,4.10
2018-07-05T15:39:18.689Z,4.00
2018-07-05T15:41:59.888Z,3.70
2018-07-05T15:44:39.920Z,3.60
2018-07-05T15:47:21.172Z,3.55
2018-07-05T15:50:01.029Z,4.08
2018-07-05T15:52:40.871Z,3.72
2018-07-05T15:55:21.500Z,3.62
2018-07-05T15:58:02.736Z,3.80
2018-07-05T16:00:42.542Z,3.50
2018-07-05T16:03:22.268Z,3.40
2018-07-05T16:06:02.960Z,3.77
2018-07-05T16:08:44.657Z,3.33
2018-07-05T16:11:25.134Z,3.72
2018-07-05T16:14:04.947Z,3.60
2018-07-05T16:16:44.686Z,3.40
2018-07-05T16:19:24.633Z,3.70
2018-07-05T16:22:04.321Z,3.95
2018-07-05T16:24:44.327Z,3.98
2018-07-05T16:27:24.223Z,4.12
2018-07-05T16:30:04.017Z,4.15
2018-07-05T16:32:45.622Z,3.95
2018-07-05T16:35:25.444Z,3.83
2018-07-05T16:38:05.262Z,4.08
2018-07-05T16:40:44.933Z,4.60
2018-07-05T16:43:25.951Z,4.20
2018-07-05T16:46:06.020Z,3.90
2018-07-05T16:48:46.258Z,3.90
2018-07-05T16:51:26.669Z,4.15
2018-07-05T16:54:16.292Z,3.90
2018-07-05T16:57:01.590Z,3.80
2018-07-05T17:00:00.894Z,4.10
2018-07-05T17:02:40.879Z,3.55
2018-07-05T17:05:20.776Z,4.03
2018-07-05T17:08:12.154Z,3.87
2018-07-05T17:10:52.976Z,3.87
2018-07-05T17:13:27.312Z,3.70
2018-07-05T17:16:07.297Z,4.25
2018-07-05T17:18:47.664Z,3.80
2018-07-05T17:21:27.670Z,4.00
2018-07-05T17:24:08.193Z,4.10
2018-07-05T17:26:48.181Z,3.80
2018-07-05T17:29:28.106Z,3.87
2018-07-05T17:32:08.215Z,3.87
2018-07-05T17:34:48.106Z,3.83
2018-07-05T17:37:28.857Z,4.00
2018-07-05T17:40:08.480Z,3.83
2018-07-05T17:42:48.769Z,3.80
2018-07-05T17:45:28.812Z,4.72
2018-07-05T17:48:08.840Z,3.98
2018-07-05T17:50:48.628Z,3.70
2018-07-05T17:53:29.520Z,3.85
2018-07-05T17:56:09.388Z,4.03
2018-07-05T17:58:49.256Z,3.90
2018-07-05T18:01:29.415Z,4.05
2018-07-05T18:04:10.827Z,3.95
2018-07-05T18:06:51.158Z,3.47
2018-07-05T18:09:30.976Z,3.80
2018-07-05T18:12:10.833Z,3.60
2018-07-05T18:14:51.031Z,4.00
2018-07-05T18:17:31.020Z,3.47
2018-07-05T18:20:10.971Z,3.50
2018-07-05T18:22:51.980Z,3.70
2018-07-05T18:25:31.902Z,3.55
2018-07-05T18:28:11.748Z,3.90
2018-07-05T18:30:51.981Z,3.58
2018-07-05T18:33:34.196Z,3.47
2018-07-05T18:36:14.340Z,3.52
2018-07-05T18:38:54.460Z,4.10
2018-07-05T18:41:34.230Z,3.83
2018-07-05T18:44:14.083Z,3.80
2018-07-05T18:46:54.707Z,3.70
2018-07-05T18:49:34.661Z,3.77
2018-07-05T18:52:14.494Z,3.80
2018-07-05T18:54:54.304Z,3.87
2018-07-05T18:57:34.037Z,3.98
2018-07-05T19:00:13.947Z,3.77
2018-07-05T19:02:53.786Z,3.95
2018-07-05T19:05:33.860Z,3.70
2018-07-05T19:08:13.862Z,4.00
2018-07-05T19:10:48.014Z,3.90
2018-07-05T19:13:27.875Z,3.70
2018-07-05T19:16:07.911Z,4.00
2018-07-05T19:18:47.685Z,4.30
2018-07-05T19:21:27.521Z,4.15
2018-07-05T19:24:07.503Z,4.05
2018-07-05T19:26:47.422Z,3.75
2018-07-05T19:29:27.136Z,4.30
2018-07-05T19:32:06.967Z,3.92
2018-07-05T19:34:40.811Z,3.92
2018-07-05T19:37:20.640Z,4.05
2018-07-05T19:40:00.484Z,3.95
2018-07-05T19:42:40.112Z,3.70
2018-07-05T19:45:20.685Z,3.75
2018-07-05T19:48:00.436Z,4.10
2018-07-05T19:50:40.441Z,4.10
2018-07-05T19:53:20.287Z,3.80
2018-07-05T19:56:00.229Z,3.75
2018-07-05T19:58:40.024Z,4.20
2018-07-05T20:01:20.353Z,4.00
2018-07-05T20:04:00.358Z,4.47
2018-07-05T20:06:40.762Z,5.08
2018-07-05T20:09:20.636Z,4.72
2018-07-05T20:12:07.555Z,5.35
2018-07-05T20:14:47.738Z,5.20
2018-07-05T20:17:27.953Z,5.70
2018-07-05T20:20:08.370Z,6.50
2018-07-05T20:22:48.229Z,5.85
2018-07-05T20:25:29.092Z,6.10
2018-07-05T20:28:09.218Z,6.47
2018-07-05T20:30:49.022Z,6.37
2018-07-05T20:33:29.129Z,6.20
2018-07-05T20:36:09.128Z,6.58
2018-07-05T20:38:49.001Z,6.30
2018-07-05T20:41:29.809Z,6.00
2018-07-05T20:44:09.756Z,6.37
2018-07-05T20:46:50.370Z,6.58
2018-07-05T20:49:30.198Z,6.60
2018-07-05T20:52:09.915Z,6.90
2018-07-05T20:54:50.214Z,6.95
2018-07-05T20:57:30.257Z,6.28
2018-07-05T21:00:10.212Z,6.08
2018-07-05T21:02:50.351Z,6.62
2018-07-05T21:05:30.498Z,6.58
2018-07-05T21:08:10.378Z,7.00
2018-07-05T21:10:50.112Z,6.80
2018-07-05T21:13:31.274Z,7.30
2018-07-05T21:16:10.924Z,6.92
2018-07-05T21:18:51.286Z,7.15
2018-07-05T21:21:32.093Z,7.10
2018-07-05T21:24:11.918Z,7.65
2018-07-05T21:26:52.643Z,6.95
2018-07-05T21:29:33.242Z,6.97
2018-07-05T21:32:13.004Z,6.87
2018-07-05T21:34:53.347Z,7.45
2018-07-05T21:37:33.904Z,7.50
2018-07-05T21:40:14.438Z,7.40
2018-07-05T21:42:48.716Z,8.00
2018-07-05T21:47:56.513Z,7.70
2018-07-05T21:50:36.370Z,7.55
2018-07-05T21:53:16.225Z,8.08
2018-07-05T21:55:56.182Z,7.58
2018-07-05T21:58:40.213Z,7.92
2018-07-05T22:01:20.025Z,8.05
2018-07-05T22:04:01.227Z,7.50
2018-07-05T22:06:41.707Z,7.85
2018-07-05T22:09:21.462Z,7.45
2018-07-05T22:12:01.233Z,7.37
2018-07-05T22:14:41.092Z,8.10
2018-07-05T22:17:26.125Z,7.78
2018-07-05T22:21:15.494Z,8.38
2018-07-05T22:24:00.458Z,8.18
2018-07-05T22:26:46.694Z,7.90
2018-07-05T22:29:31.819Z,8.45
2018-07-05T22:32:12.437Z,8.78
2018-07-05T22:34:52.369Z,7.80
2018-07-05T22:37:32.411Z,8.50
2018-07-05T22:40:12.151Z,8.53
2018-07-05T22:42:52.465Z,8.93
2018-07-05T22:45:32.277Z,9.18
2018-07-05T22:48:12.170Z,7.72
2018-07-05T22:50:51.896Z,8.08
2018-07-05T22:53:31.713Z,8.88
2018-07-05T22:56:11.843Z,8.45
2018-07-05T22:58:51.779Z,9.00
2018-07-05T23:01:31.678Z,9.25
2018-07-05T23:04:11.394Z,8.03
2018-07-05T23:06:51.452Z,8.25
2018-07-05T23:09:32.317Z,8.08
2018-07-05T23:12:12.144Z,8.80
2018-07-05T23:14:52.259Z,8.00
2018-07-05T23:17:33.237Z,8.00
2018-07-05T23:20:07.757Z,8.10
2018-07-05T23:22:48.488Z,8.55
2018-07-05T23:25:28.860Z,7.95
2018-07-05T23:28:09.001Z,8.25
2018-07-05T23:30:49.007Z,8.40
2018-07-05T23:33:23.026Z,8.50
2018-07-05T23:36:02.772Z,8.50
2018-07-05T23:38:42.802Z,8.40
2018-07-05T23:41:23.353Z,8.18
2018-07-05T23:44:03.076Z,8.43
2018-07-05T23:46:42.970Z,8.23
2018-07-05T23:49:24.181Z,7.78
2018-07-05T23:52:03.946Z,7.78
2018-07-05T23:54:43.781Z,8.43
2018-07-05T23:57:24.089Z,8.17
